createdAt,value
2022-07-25T03:18:30.625Z,89.86
2022-07-25T03:21:40.171Z,90.14
2022-07-25T03:24:49.731Z,89.19
2022-07-25T03:28:01.289Z,89.76
2022-07-25T03:31:10.828Z,89.58
2022-07-25T03:34:24.100Z,90.11
2022-07-25T03:37:33.876Z,91.09
2022-07-25T03:40:43.466Z,91.32
2022-07-25T03:43:56.041Z,92.60
2022-07-25T03:47:05.622Z,92.83
2022-07-25T03:50:21.095Z,93.15
2022-07-25T03:53:30.605Z,94.12
2022-07-25T03:56:48.321Z,93.67
2022-07-25T04:00:00.140Z,93.32
2022-07-25T04:03:09.701Z,92.10
2022-07-25T04:06:23.325Z,92.79
2022-07-25T04:09:33.624Z,93.31
2022-07-25T04:12:43.343Z,94.03
2022-07-25T04:15:52.800Z,94.19
2022-07-25T04:19:05.390Z,93.96
2022-07-25T04:22:19.372Z,94.47
2022-07-25T04:25:28.861Z,93.87
2022-07-25T04:28:38.653Z,93.07
2022-07-25T04:31:48.220Z,92.80
2022-07-25T04:34:57.842Z,92.86
2022-07-25T04:38:12.281Z,93.22
2022-07-25T04:41:22.130Z,93.90
2022-07-25T04:44:36.594Z,93.97
2022-07-25T04:47:46.341Z,94.10
2022-07-25T04:50:55.896Z,94.88
2022-07-25T04:54:17.497Z,95.29
2022-07-25T04:57:27.014Z,94.96
2022-07-25T05:04:14.272Z,94.23
2022-07-25T05:07:23.755Z,93.75
2022-07-25T05:10:38.517Z,92.96
2022-07-25T05:13:48.017Z,92.85
2022-07-25T05:16:57.565Z,92.89
2022-07-25T05:20:10.579Z,92.67
2022-07-25T05:23:20.121Z,92.58
2022-07-25T05:26:30.942Z,92.08
2022-07-25T05:29:43.620Z,91.47
2022-07-25T05:32:55.532Z,90.46
2022-07-25T05:36:06.028Z,90.15
2022-07-25T05:39:18.293Z,89.78
2022-07-25T05:42:29.099Z,89.46
2022-07-25T05:45:38.606Z,90.07
2022-07-25T05:48:48.198Z,90.72
2022-07-25T05:51:59.901Z,91.04
2022-07-25T05:55:13.471Z,89.87
2022-07-25T05:58:29.366Z,89.88
2022-07-25T06:01:42.598Z,89.78
2022-07-25T06:04:52.120Z,90.03
2022-07-25T06:08:01.701Z,89.36
2022-07-25T06:11:13.465Z,88.79
2022-07-25T06:14:24.225Z,88.39
2022-07-25T06:17:34.628Z,87.60
2022-07-25T06:20:47.212Z,86.19
2022-07-25T06:23:56.722Z,85.64
2022-07-25T06:27:07.703Z,85.15
2022-07-25T06:30:20.569Z,84.83
2022-07-25T06:33:30.339Z,83.67
2022-07-25T06:36:40.310Z,83.28
2022-07-25T06:39:49.835Z,81.29
2022-07-25T06:42:59.393Z,80.22
2022-07-25T06:46:10.591Z,78.22
2022-07-25T06:49:23.219Z,76.74
2022-07-25T06:52:32.732Z,75.62
2022-07-25T12:17:05.023Z,38.30
2022-07-25T12:20:20.093Z,39.58
2022-07-25T12:23:39.291Z,39.55
2022-07-25T12:26:49.098Z,38.90
2022-07-25T12:29:59.815Z,38.49
2022-07-25T12:33:12.806Z,39.00
2022-07-25T12:36:22.741Z,38.96
2022-07-25T12:39:33.407Z,39.35
2022-07-25T12:42:43.713Z,37.48
2022-07-25T12:45:53.533Z,39.08
2022-07-25T12:49:12.416Z,38.70
2022-07-25T12:52:23.841Z,39.42
2022-07-25T12:55:34.972Z,38.44
2022-07-25T12:58:51.990Z,38.68
2022-07-25T13:02:04.074Z,37.87
2022-07-25T13:05:15.128Z,37.63
2022-07-25T13:08:24.622Z,37.41
2022-07-25T13:11:34.246Z,36.23
2022-07-25T13:14:43.933Z,37.75
2022-07-25T13:17:56.233Z,36.90
2022-07-25T13:21:08.661Z,37.63
2022-07-25T13:24:27.325Z,38.03
2022-07-25T13:27:38.200Z,39.43
2022-07-25T13:30:47.809Z,39.04
2022-07-25T13:33:57.723Z,45.19
2022-07-25T13:37:09.182Z,45.15
2022-07-25T13:40:18.802Z,45.92
2022-07-25T13:43:28.231Z,47.07
2022-07-25T13:46:37.886Z,45.98
2022-07-25T13:49:50.177Z,45.17
2022-07-25T13:53:01.561Z,44.62
2022-07-25T13:56:12.268Z,43.00
2022-07-25T13:59:22.136Z,41.51
2022-07-25T14:02:31.875Z,41.31
2022-07-25T14:05:44.130Z,42.70
2022-07-25T14:08:54.960Z,41.49
2022-07-25T14:12:04.783Z,41.95
2022-07-25T14:15:17.453Z,42.24
2022-07-25T14:18:27.711Z,41.61
2022-07-25T14:21:37.834Z,42.16
2022-07-25T14:24:51.026Z,42.48
2022-07-25T14:28:01.023Z,41.82
2022-07-25T14:31:11.236Z,42.34
2022-07-25T14:34:20.799Z,43.04
2022-07-25T14:37:31.221Z,42.52
2022-07-25T14:40:41.939Z,42.41
2022-07-25T14:43:51.387Z,42.91
2022-07-25T14:47:00.887Z,42.01
2022-07-25T14:50:11.065Z,40.49
2022-07-25T14:53:22.978Z,39.54
2022-07-25T14:56:33.991Z,36.79
2022-07-25T14:59:43.426Z,35.56
2022-07-25T15:02:52.954Z,35.42
2022-07-25T15:06:03.097Z,35.57
2022-07-25T15:09:12.552Z,35.62
2022-07-25T15:12:23.196Z,36.41
2022-07-25T15:15:38.292Z,35.84
2022-07-25T15:19:14.638Z,37.00
2022-07-25T15:22:17.269Z,36.94
2022-07-25T15:29:00.880Z,40.20
2022-07-25T15:32:10.355Z,41.37
2022-07-25T15:35:19.921Z,41.91
2022-07-25T15:38:30.606Z,41.50
2022-07-25T15:41:42.149Z,40.12
2022-07-25T15:45:15.163Z,39.24
2022-07-25T15:48:27.419Z,38.49
2022-07-25T15:51:36.954Z,37.60
2022-07-25T15:54:46.475Z,36.09
2022-07-25T15:57:56.123Z,37.21
2022-07-25T16:01:07.025Z,37.34
2022-07-25T16:04:16.689Z,37.15
2022-07-25T16:07:28.729Z,37.48
2022-07-25T16:10:38.656Z,38.63
2022-07-25T16:13:48.284Z,38.69
2022-07-25T16:16:59.333Z,38.31
2022-07-25T16:20:10.159Z,38.61
2022-07-25T16:23:19.634Z,38.80
2022-07-25T16:26:32.041Z,39.35
2022-07-25T16:29:41.979Z,39.11
2022-07-25T16:32:55.401Z,38.75
2022-07-25T16:36:05.951Z,38.98
2022-07-25T16:39:15.599Z,39.22
2022-07-25T16:42:25.257Z,39.57
2022-07-25T16:45:42.927Z,39.24
2022-07-25T16:48:53.773Z,41.07
2022-07-25T16:52:03.648Z,40.55
2022-07-25T16:55:13.284Z,40.67
2022-07-25T16:58:22.828Z,41.40
2022-07-25T17:01:32.682Z,39.53
2022-07-25T17:04:51.148Z,40.39
2022-07-25T17:08:00.715Z,41.90
2022-07-25T17:11:15.428Z,41.90
2022-07-25T17:14:29.932Z,41.30
2022-07-25T17:17:40.137Z,40.61
2022-07-25T17:20:50.973Z,40.19
2022-07-25T17:24:00.891Z,39.90
2022-07-25T17:27:13.368Z,40.46
2022-07-25T17:30:23.073Z,40.58
2022-07-25T17:33:34.751Z,41.18
2022-07-25T17:36:48.018Z,40.56
2022-07-25T17:40:01.586Z,41.97
2022-07-25T17:43:11.345Z,42.71
2022-07-25T17:46:20.926Z,43.04
2022-07-25T17:49:33.313Z,43.03
2022-07-25T17:52:45.224Z,43.24
2022-07-25T17:55:56.885Z,43.77
2022-07-25T17:59:06.488Z,44.03
2022-07-25T18:02:16.331Z,45.13
2022-07-25T18:05:26.587Z,44.55
2022-07-25T18:08:37.719Z,46.01
2022-07-25T18:11:47.568Z,45.41
2022-07-25T18:15:04.602Z,46.83
2022-07-25T18:18:18.435Z,46.08
2022-07-25T18:21:30.116Z,46.49
2022-07-25T18:24:40.886Z,46.30
2022-07-25T18:27:50.599Z,45.77
2022-07-25T18:31:00.366Z,46.03
2022-07-25T18:34:10.253Z,46.22
2022-07-25T18:37:22.997Z,46.21
2022-07-25T18:40:33.803Z,46.98
2022-07-25T18:43:47.156Z,48.36
2022-07-25T18:46:57.655Z,48.06
2022-07-25T18:50:19.652Z,48.30
2022-07-25T18:53:29.228Z,49.55
2022-07-25T18:56:43.641Z,49.42
2022-07-25T18:59:53.212Z,49.42
2022-07-25T19:03:02.831Z,50.17
2022-07-25T19:06:16.175Z,50.37
2022-07-25T19:09:26.770Z,49.70
2022-07-25T19:12:38.498Z,50.39
2022-07-25T19:15:48.154Z,49.79
2022-07-25T19:18:57.925Z,50.27
2022-07-25T19:22:07.850Z,50.71
2022-07-25T19:25:17.420Z,50.81
2022-07-25T19:28:28.801Z,50.92
2022-07-25T19:31:43.737Z,51.81
2022-07-25T19:34:53.371Z,50.98
2022-07-25T19:38:05.795Z,51.30
2022-07-25T19:41:15.459Z,51.44
2022-07-25T19:44:26.327Z,51.21
2022-07-25T19:47:35.996Z,50.86
2022-07-25T19:50:48.175Z,51.35
2022-07-25T19:53:57.720Z,51.70
2022-07-25T19:57:07.413Z,52.19
2022-07-25T20:00:20.861Z,52.00
2022-07-25T20:03:30.414Z,53.04
2022-07-25T20:06:40.463Z,52.91
2022-07-25T20:10:03.823Z,52.81
2022-07-25T20:13:13.515Z,53.18
2022-07-25T20:16:26.686Z,53.46
2022-07-25T20:19:39.096Z,54.28
